Time;durP1;ratioP1;P1;durP2;ratioP2;P2;SDS_P1;SDS_P2;PMS_P1;PMS_P2;Temp;Humidity;BMP_temperature;BMP_pressure;BME280_temperature;BME280_humidity;BME280_pressure;Samples;Min_cycle;Max_cycle;Signal;HPM_P1;HPM_P2
2021/05/28 00:02:01;;;;;;;2.93;2.73;;;10.20;92.70;;;;;;5039949;28;20473;-91
2021/05/28 00:04:27;;;;;;;2.20;2.10;;;10.20;92.50;;;;;;5039938;28;20442;-91
2021/05/28 00:06:54;;;;;;;4.63;2.63;;;10.20;92.20;;;;;;5039791;28;20473;-93
2021/05/28 00:09:20;;;;;;;2.03;2.03;;;10.20;92.40;;;;;;5039867;28;20449;-93
2021/05/28 00:11:46;;;;;;;13.13;2.40;;;10.20;92.50;;;;;;5039884;28;20505;-90
2021/05/28 00:14:14;;;;;;;4.30;2.50;;;10.20;92.60;;;;;;5039717;28;20521;-92
2021/05/28 00:16:40;;;;;;;2.67;2.47;;;10.20;92.70;;;;;;5039645;28;20488;-92
2021/05/28 00:19:07;;;;;;;3.47;2.87;;;10.20;92.70;;;;;;5038865;28;20501;-92
2021/05/28 00:21:34;;;;;;;2.30;2.20;;;10.20;92.70;;;;;;5039185;28;20509;-93
2021/05/28 00:24:00;;;;;;;2.90;2.80;;;10.10;92.80;;;;;;5037399;28;20445;-92
2021/05/28 00:26:27;;;;;;;2.30;2.20;;;10.10;92.90;;;;;;5035540;28;20476;-92
2021/05/28 00:28:53;;;;;;;2.70;2.60;;;10.10;93.10;;;;;;5038595;28;20507;-92
2021/05/28 00:31:21;;;;;;;2.63;2.53;;;10.10;93.20;;;;;;5038710;28;20464;-93
2021/05/28 00:33:47;;;;;;;2.00;1.90;;;10.10;93.20;;;;;;5038825;28;20445;-93
2021/05/28 00:36:14;;;;;;;2.60;2.50;;;10.00;93.60;;;;;;5038279;28;20501;-93
2021/05/28 00:45:33;;;;;;;;;;;;;;;;;;;;;
2021/05/28 02:54:58;;;;;;;2.50;2.30;;;9.60;94.40;;;;;;5037350;28;20549;-92
2021/05/28 02:57:24;;;;;;;2.20;2.10;;;9.60;94.30;;;;;;5036715;28;20504;-92
2021/05/28 02:59:51;;;;;;;2.23;2.13;;;9.60;94.20;;;;;;5030859;28;20456;-92
2021/05/28 03:02:18;;;;;;;2.60;2.50;;;9.50;94.20;;;;;;5037837;28;20464;-91
2021/05/28 03:04:44;;;;;;;7.50;2.60;;;9.50;94.50;;;;;;5040279;28;20458;-92
2021/05/28 03:07:11;;;;;;;2.30;2.20;;;9.50;94.80;;;;;;5037704;28;20567;-92
2021/05/28 03:09:37;;;;;;;2.70;2.13;;;9.50;94.80;;;;;;5033077;28;20540;-92
2021/05/28 03:12:05;;;;;;;2.57;2.37;;;9.40;94.90;;;;;;5030426;28;21009;-92
2021/05/28 03:14:32;;;;;;;2.10;2.00;;;9.40;94.90;;;;;;5032632;28;20470;-93
2021/05/28 03:16:58;;;;;;;2.00;2.00;;;9.30;94.60;;;;;;5036510;28;20537;-93
2021/05/28 03:19:28;;;;;;;3.63;2.30;;;9.30;94.70;;;;;;5040638;28;20496;-91
2021/05/28 03:24:38;;;;;;;2.10;2.07;;;9.30;94.70;;;;;;5039989;28;20502;-91
2021/05/28 03:27:06;;;;;;;6.10;1.87;;;9.20;94.80;;;;;;5040620;28;20451;-92
2021/05/28 03:29:32;;;;;;;1.83;1.83;;;9.20;95.00;;;;;;5040607;28;20439;-93
2021/05/28 03:31:59;;;;;;;2.60;2.40;;;9.10;94.80;;;;;;5040517;28;20488;-93
2021/05/28 03:34:25;;;;;;;2.17;1.97;;;9.10;94.80;;;;;;5040589;28;20509;-91
2021/05/28 03:36:51;;;;;;;1.70;1.70;;;9.10;95.10;;;;;;5040418;28;20517;-93
2021/05/28 03:39:18;;;;;;;2.70;2.60;;;9.20;95.20;;;;;;5040318;28;20504;-92
2021/05/28 03:41:44;;;;;;;2.13;2.07;;;9.10;95.10;;;;;;5040090;28;20516;-92
2021/05/28 03:44:12;;;;;;;2.40;2.30;;;9.10;95.30;;;;;;5039846;28;20525;-92
2021/05/28 03:46:38;;;;;;;2.43;2.33;;;9.10;95.40;;;;;;5040097;28;20549;-92
2021/05/28 03:49:04;;;;;;;2.23;2.13;;;9.10;95.50;;;;;;5040254;28;20469;-92
2021/05/28 03:51:30;;;;;;;2.73;2.63;;;9.10;95.60;;;;;;5039880;28;20456;-92
2021/05/28 03:53:57;;;;;;;2.60;2.50;;;9.10;95.70;;;;;;5038920;28;20565;-91
2021/05/28 03:56:23;;;;;;;2.70;2.60;;;9.10;95.90;;;;;;5039438;28;20489;-93
2021/05/28 03:58:50;;;;;;;3.43;3.23;;;9.00;96.00;;;;;;5040118;28;20442;-91
2021/05/28 04:01:17;;;;;;;3.00;2.37;;;9.00;96.10;;;;;;5040050;28;20461;-92
2021/05/28 04:03:43;;;;;;;3.20;3.00;;;9.00;96.00;;;;;;5040055;28;20545;-92
2021/05/28 04:06:09;;;;;;;2.77;2.53;;;9.00;95.90;;;;;;5039907;28;20504;-91
2021/05/28 04:08:36;;;;;;;2.80;2.70;;;9.00;95.90;;;;;;5039967;28;20453;-91
2021/05/28 04:11:02;;;;;;;2.50;2.40;;;8.90;95.80;;;;;;5039841;28;20505;-91
2021/05/28 04:13:32;;;;;;;2.40;2.30;;;8.90;95.90;;;;;;5039928;28;20469;-92
2021/05/28 04:16:00;;;;;;;2.43;2.23;;;8.90;95.80;;;;;;5039680;28;20535;-92
2021/05/28 04:18:27;;;;;;;2.97;2.80;;;8.90;95.90;;;;;;5039811;28;20513;-93
2021/05/28 04:20:54;;;;;;;2.53;2.43;;;8.90;95.90;;;;;;5039759;28;20450;-91
2021/05/28 04:23:21;;;;;;;2.93;2.83;;;8.90;95.70;;;;;;5038747;28;20509;-92
2021/05/28 04:25:48;;;;;;;2.90;2.80;;;8.90;95.70;;;;;;5038277;28;20465;-92
2021/05/28 04:28:15;;;;;;;3.03;2.87;;;8.90;95.60;;;;;;5018655;28;20464;-92
2021/05/28 04:30:41;;;;;;;2.90;2.70;;;8.90;95.70;;;;;;5018325;28;20467;-92
2021/05/28 04:33:10;;;;;;;10.30;2.30;;;8.90;95.60;;;;;;5023991;28;20813;-92
2021/05/28 04:35:37;;;;;;;7.20;2.60;;;8.90;95.70;;;;;;5027444;28;20547;-92
2021/05/28 04:38:04;;;;;;;2.87;2.77;;;8.90;95.80;;;;;;5026772;28;20469;-92
2021/05/28 04:40:31;;;;;;;4.70;2.57;;;8.80;95.90;;;;;;5029403;28;20525;-92
2021/05/28 04:42:58;;;;;;;2.93;2.73;;;8.80;96.20;;;;;;5038355;28;20461;-93
2021/05/28 04:45:25;;;;;;;2.90;2.80;;;8.70;96.20;;;;;;5039029;28;20534;-92
2021/05/28 04:47:52;;;;;;;3.40;3.20;;;8.70;96.60;;;;;;5037574;28;20461;-92
2021/05/28 04:50:21;;;;;;;3.27;3.07;;;8.60;96.40;;;;;;5035411;28;20526;-91
2021/05/28 04:52:48;;;;;;;2.20;2.10;;;8.60;96.80;;;;;;5031725;28;20509;-91
2021/05/28 04:55:19;;;;;;;5.53;2.63;;;8.60;96.40;;;;;;5028368;28;20474;-91
2021/05/28 04:57:46;;;;;;;3.63;2.70;;;8.60;96.60;;;;;;5026593;28;20469;-91
2021/05/28 05:00:13;;;;;;;3.23;3.13;;;8.60;96.90;;;;;;5025364;28;20459;-92
2021/05/28 05:02:40;;;;;;;3.07;2.97;;;8.60;96.80;;;;;;5028796;28;20446;-91
2021/05/28 05:05:08;;;;;;;3.33;3.17;;;8.60;96.60;;;;;;5033497;28;20523;-91
2021/05/28 05:07:34;;;;;;;3.17;2.97;;;8.60;96.60;;;;;;5029907;28;20476;-92
2021/05/28 05:10:03;;;;;;;3.90;3.60;;;8.70;96.80;;;;;;5023930;28;20591;-91
2021/05/28 05:12:29;;;;;;;2.63;2.43;;;8.60;96.80;;;;;;5023243;28;20465;-91
2021/05/28 05:14:55;;;;;;;3.30;3.20;;;8.70;97.30;;;;;;5022853;28;20489;-91
2021/05/28 05:17:22;;;;;;;3.00;2.90;;;8.60;97.10;;;;;;5032988;28;20465;-92
2021/05/28 05:19:48;;;;;;;3.37;3.23;;;8.70;96.90;;;;;;5031187;28;20497;-91
2021/05/28 05:22:14;;;;;;;3.30;3.20;;;8.70;97.10;;;;;;5019596;28;20934;-91
2021/05/28 05:24:41;;;;;;;3.63;3.30;;;8.70;97.00;;;;;;5016969;28;20461;-91
2021/05/28 05:27:08;;;;;;;2.90;2.80;;;8.70;96.80;;;;;;5016629;28;20501;-89
2021/05/28 05:29:37;;;;;;;17.07;3.40;;;8.80;97.00;;;;;;5020714;28;20472;-90
2021/05/28 05:32:03;;;;;;;3.00;2.47;;;8.90;97.80;;;;;;5025754;28;20475;-90
2021/05/28 05:34:31;;;;;;;3.43;3.23;;;9.60;99.90;;;;;;5026951;28;20461;-90
2021/05/28 05:36:58;;;;;;;3.20;3.00;;;9.80;99.90;;;;;;5018110;28;20471;-91
2021/05/28 05:39:25;;;;;;;3.60;3.40;;;10.00;99.90;;;;;;5019062;28;20461;-91
2021/05/28 05:41:51;;;;;;;3.27;3.00;;;10.10;99.60;;;;;;5018237;28;20470;-91
2021/05/28 05:44:18;;;;;;;4.17;3.97;;;10.20;98.40;;;;;;5020652;28;20970;-93
2021/05/28 05:46:45;;;;;;;4.10;3.70;;;10.30;97.30;;;;;;5022992;28;20973;-92
2021/05/28 05:49:11;;;;;;;3.27;3.17;;;10.50;98.50;;;;;;5025964;28;20465;-92
2021/05/28 05:52:14;;;;;;;3.50;3.40;;;10.70;98.20;;;;;;5034456;28;20464;-92
2021/05/28 05:54:41;;;;;;;4.57;4.27;;;10.80;97.20;;;;;;5039183;28;20475;-92
2021/05/28 05:57:10;;;;;;;4.33;4.03;;;10.80;96.20;;;;;;5022859;28;20461;-92
2021/05/28 05:59:38;;;;;;;4.03;3.93;;;10.80;96.20;;;;;;5004190;28;20459;-93
2021/05/28 06:02:04;;;;;;;10.30;4.30;;;10.90;96.50;;;;;;5014135;28;20455;-92
2021/05/28 06:04:31;;;;;;;6.10;5.60;;;11.20;96.90;;;;;;5001527;28;20597;-91
2021/05/28 06:06:57;;;;;;;6.17;5.63;;;11.30;96.50;;;;;;5002211;28;20557;-92
2021/05/28 06:09:24;;;;;;;5.77;5.47;;;11.50;96.30;;;;;;5003296;28;20466;-92
2021/05/28 06:11:54;;;;;;;8.23;7.20;;;11.40;95.20;;;;;;5000136;28;20557;-92
2021/05/28 06:14:23;;;;;;;5.40;5.03;;;11.30;94.70;;;;;;5005195;28;20879;-92
2021/05/28 06:17:13;;;;;;;6.70;6.30;;;11.40;95.90;;;;;;5020083;28;20466;-92
2021/05/28 06:22:58;;;;;;;10.43;6.70;;;11.80;95.30;;;;;;4956938;28;20468;-92
2021/05/28 06:25:25;;;;;;;6.37;6.07;;;12.00;95.00;;;;;;5014667;28;20485;-92
2021/05/28 06:27:56;;;;;;;8.10;7.30;;;12.20;95.60;;;;;;5016956;28;20504;-92
2021/05/28 06:30:23;;;;;;;7.50;6.87;;;12.30;94.60;;;;;;5013848;28;20465;-93
2021/05/28 06:32:51;;;;;;;8.93;8.33;;;12.60;94.40;;;;;;5011765;28;20469;-92
2021/05/28 06:35:17;;;;;;;8.90;8.00;;;12.70;94.30;;;;;;5007263;28;20512;-92
2021/05/28 06:37:44;;;;;;;9.20;7.70;;;13.00;93.60;;;;;;5073771;22;20496;-92
2021/05/28 06:40:13;;;;;;;8.77;8.07;;;13.10;93.20;;;;;;5055837;28;20816;-92
2021/05/28 06:42:39;;;;;;;10.63;7.53;;;13.20;92.20;;;;;;5058519;28;20463;-91
2021/05/28 06:45:07;;;;;;;7.70;7.10;;;13.30;92.10;;;;;;5058502;28;20464;-93
2021/05/28 06:47:33;;;;;;;8.53;7.93;;;13.50;92.30;;;;;;5062186;28;20487;-93
2021/05/28 06:50:00;;;;;;;8.57;7.87;;;13.70;92.10;;;;;;5056708;28;20528;-91
2021/05/28 06:52:26;;;;;;;8.43;7.83;;;13.70;91.80;;;;;;5055657;28;20542;-91
2021/05/28 06:54:52;;;;;;;8.60;7.77;;;13.80;91.50;;;;;;5055599;28;20475;-91
2021/05/28 06:57:19;;;;;;;8.50;7.50;;;13.90;91.10;;;;;;5055523;28;20475;-91
2021/05/28 06:59:45;;;;;;;7.50;7.00;;;14.00;90.60;;;;;;5054884;28;20516;-92
2021/05/28 07:02:11;;;;;;;7.87;7.30;;;14.00;91.30;;;;;;5072610;28;20465;-92
2021/05/28 07:04:37;;;;;;;10.73;6.63;;;14.10;90.70;;;;;;5062024;28;20459;-92
2021/05/28 07:07:05;;;;;;;7.70;7.00;;;14.20;91.10;;;;;;5055016;28;20497;-92
2021/05/28 07:09:31;;;;;;;7.33;6.83;;;14.10;90.60;;;;;;5055275;28;20485;-91
2021/05/28 07:11:58;;;;;;;10.73;7.33;;;14.00;90.60;;;;;;5057490;28;20514;-94
2021/05/28 07:14:24;;;;;;;7.87;7.00;;;14.00;89.00;;;;;;5056477;28;20462;-90
2021/05/28 07:16:51;;;;;;;7.77;7.07;;;14.00;90.30;;;;;;5060928;28;20486;-92
2021/05/28 07:19:17;;;;;;;7.80;7.20;;;14.10;89.20;;;;;;5075117;28;20462;-92
2021/05/28 07:21:43;;;;;;;8.00;6.97;;;14.10;88.80;;;;;;5076012;28;20455;-91
2021/05/28 07:24:10;;;;;;;11.83;6.90;;;14.10;88.70;;;;;;5078941;28;20467;-90
2021/05/28 07:26:37;;;;;;;9.27;6.97;;;14.10;90.10;;;;;;5075161;28;20491;-91
2021/05/28 07:29:04;;;;;;;6.97;6.30;;;14.10;90.40;;;;;;5075319;28;20465;-91
2021/05/28 07:31:30;;;;;;;6.77;6.27;;;14.20;90.00;;;;;;5075039;28;20455;-91
2021/05/28 07:33:56;;;;;;;7.10;6.50;;;14.20;89.40;;;;;;5075341;28;20821;-91
2021/05/28 07:36:23;;;;;;;7.00;6.47;;;14.40;89.90;;;;;;5074473;28;20490;-90
2021/05/28 07:38:49;;;;;;;6.23;5.83;;;14.40;89.00;;;;;;5074831;28;20458;-91
2021/05/28 07:41:17;;;;;;;6.33;5.93;;;14.40;89.10;;;;;;5074658;28;20868;-91
2021/05/28 07:43:43;;;;;;;7.63;7.03;;;14.60;89.30;;;;;;5074781;28;20980;-91
2021/05/28 07:46:09;;;;;;;6.47;5.87;;;14.60;86.30;;;;;;5074382;28;20494;-90
2021/05/28 07:48:36;;;;;;;6.40;5.90;;;14.50;85.40;;;;;;5074516;28;20812;-91
2021/05/28 07:51:02;;;;;;;6.60;6.20;;;14.50;87.80;;;;;;5074467;28;20464;-90
2021/05/28 07:53:29;;;;;;;8.67;5.57;;;14.70;87.10;;;;;;5074302;28;20459;-91
2021/05/28 07:55:58;;;;;;;5.47;5.17;;;14.70;88.10;;;;;;5074741;28;20459;-91
2021/05/28 07:58:26;;;;;;;5.17;4.77;;;14.80;88.00;;;;;;5073973;28;20473;-90
2021/05/28 08:00:52;;;;;;;6.07;5.50;;;14.80;85.10;;;;;;5074279;28;20839;-90
2021/05/28 08:03:19;;;;;;;5.53;5.20;;;14.70;83.90;;;;;;5073953;28;20462;-89
2021/05/28 08:05:49;;;;;;;6.40;5.90;;;14.80;84.40;;;;;;5073652;28;20521;-90
2021/05/28 08:08:15;;;;;;;7.90;5.80;;;14.80;83.70;;;;;;5074326;28;20538;-89
2021/05/28 08:10:42;;;;;;;5.73;5.20;;;15.00;83.80;;;;;;5072884;28;20474;-91
2021/05/28 08:13:08;;;;;;;7.33;6.40;;;15.20;84.50;;;;;;5074117;28;20462;-89
2021/05/28 08:15:35;;;;;;;6.37;5.00;;;15.30;83.10;;;;;;5073948;28;20915;-90
2021/05/28 08:18:02;;;;;;;5.60;4.47;;;15.30;81.90;;;;;;5073789;28;20478;-90
2021/05/28 08:20:29;;;;;;;5.00;4.70;;;15.40;84.60;;;;;;5073951;28;20504;-90
2021/05/28 08:22:58;;;;;;;4.93;4.63;;;15.50;82.80;;;;;;5073554;28;20454;-90
2021/05/28 08:25:24;;;;;;;5.63;5.23;;;15.50;81.30;;;;;;5063513;28;20842;-90
2021/05/28 08:27:50;;;;;;;8.33;5.30;;;15.40;80.00;;;;;;5053679;28;20495;-88
2021/05/28 08:30:17;;;;;;;6.27;5.17;;;15.40;80.70;;;;;;5053677;28;20463;-89
2021/05/28 08:32:45;;;;;;;6.53;4.73;;;15.30;80.80;;;;;;5053617;28;20467;-89
2021/05/28 08:35:12;;;;;;;5.70;4.33;;;15.30;80.50;;;;;;5053278;28;20467;-89
2021/05/28 08:37:39;;;;;;;5.87;5.47;;;15.40;82.30;;;;;;5053372;28;20541;-89
2021/05/28 08:40:07;;;;;;;5.80;5.43;;;15.40;80.70;;;;;;5053205;28;20975;-88
2021/05/28 08:42:33;;;;;;;6.77;5.03;;;15.30;81.20;;;;;;5053463;28;20468;-88
2021/05/28 08:45:00;;;;;;;5.97;5.67;;;15.40;82.30;;;;;;5053419;28;20470;-88
2021/05/28 08:47:27;;;;;;;5.23;5.03;;;15.50;82.00;;;;;;5052946;28;20487;-88
2021/05/28 08:49:56;;;;;;;4.10;3.93;;;15.50;82.00;;;;;;5053022;28;20468;-88
2021/05/28 08:52:22;;;;;;;4.40;4.30;;;15.50;78.30;;;;;;5053719;28;20975;-89
2021/05/28 08:54:50;;;;;;;6.30;4.50;;;15.60;80.00;;;;;;5052953;28;20479;-89
2021/05/28 08:57:18;;;;;;;5.40;4.80;;;15.60;80.30;;;;;;5053345;28;21014;-89
2021/05/28 08:59:45;;;;;;;5.77;4.80;;;15.60;80.10;;;;;;5062675;28;20500;-88
2021/05/28 09:02:35;;;;;;;5.47;5.07;;;15.50;79.80;;;;;;5071431;28;20466;-88
2021/05/28 09:05:08;;;;;;;5.97;5.57;;;15.60;80.50;;;;;;5056190;28;20463;-88
2021/05/28 09:07:35;;;;;;;4.77;4.53;;;15.70;79.00;;;;;;5072741;28;20578;-90
2021/05/28 09:10:01;;;;;;;4.83;4.63;;;15.90;79.80;;;;;;5074778;28;20466;-91
2021/05/28 09:12:28;;;;;;;6.90;5.30;;;15.80;77.80;;;;;;5073201;28;20467;-88
2021/05/28 09:14:55;;;;;;;4.60;4.40;;;15.80;78.90;;;;;;5073025;28;20831;-88
2021/05/28 09:17:21;;;;;;;5.30;4.90;;;15.70;79.10;;;;;;5072811;28;21002;-89
2021/05/28 09:19:53;;;;;;;6.60;5.00;;;15.60;78.10;;;;;;5073022;28;20857;-89
2021/05/28 09:22:20;;;;;;;5.47;5.17;;;15.70;79.30;;;;;;5074047;28;20489;-90
2021/05/28 09:24:47;;;;;;;4.43;4.23;;;15.80;78.60;;;;;;5079300;28;20463;-94
2021/05/28 09:27:23;;;;;;;4.43;4.03;;;15.70;75.30;;;;;;5081821;28;20554;-94
2021/05/28 09:30:09;;;;;;;4.00;3.90;;;15.90;77.90;;;;;;5079949;28;20462;-94
2021/05/28 09:32:38;;;;;;;4.07;3.87;;;16.10;78.60;;;;;;5086297;28;20473;-94
2021/05/28 09:35:08;;;;;;;3.30;3.20;;;16.30;77.50;;;;;;5078757;28;20542;-92
2021/05/28 09:37:39;;;;;;;6.63;4.67;;;16.20;75.60;;;;;;5074275;28;20851;-90
2021/05/28 09:40:08;;;;;;;4.53;3.60;;;16.30;77.70;;;;;;5065830;28;20486;-92
2021/05/28 09:42:52;;;;;;;3.93;3.63;;;16.50;78.80;;;;;;5065960;28;20451;-93
2021/05/28 09:45:23;;;;;;;3.77;3.57;;;16.60;77.90;;;;;;5066002;28;20454;-90
2021/05/28 09:47:50;;;;;;;3.57;3.43;;;16.70;73.80;;;;;;5073707;28;20536;-92
2021/05/28 09:50:16;;;;;;;4.07;3.87;;;16.80;76.90;;;;;;5077356;28;20546;-91
2021/05/28 09:52:44;;;;;;;3.83;3.63;;;16.90;76.30;;;;;;5077506;28;20468;-91
2021/05/28 09:55:11;;;;;;;4.40;4.20;;;16.90;73.60;;;;;;5076879;28;20516;-91
2021/05/28 09:57:39;;;;;;;4.37;4.07;;;17.00;73.60;;;;;;5076701;28;20475;-92
2021/05/28 10:00:08;;;;;;;6.30;4.50;;;17.10;73.10;;;;;;5077068;28;20455;-92
2021/05/28 10:02:37;;;;;;;4.93;4.73;;;17.20;73.30;;;;;;5078452;28;21011;-93
2021/05/28 10:05:05;;;;;;;5.23;4.87;;;17.30;76.40;;;;;;5080997;28;20530;-93
2021/05/28 10:07:32;;;;;;;4.87;4.47;;;17.30;72.60;;;;;;5077161;28;20478;-93
2021/05/28 10:09:59;;;;;;;5.30;4.83;;;17.20;72.40;;;;;;5076977;28;20469;-92
2021/05/28 10:12:26;;;;;;;7.90;5.00;;;17.20;75.00;;;;;;5076731;28;20517;-93
2021/05/28 10:14:53;;;;;;;4.63;4.33;;;17.20;71.80;;;;;;5076334;28;20464;-92
2021/05/28 10:17:20;;;;;;;5.70;4.80;;;17.10;73.50;;;;;;5077436;28;20476;-92
2021/05/28 10:19:47;;;;;;;5.17;4.90;;;17.00;71.00;;;;;;5077448;28;20455;-92
2021/05/28 10:22:16;;;;;;;6.40;5.10;;;17.00;71.00;;;;;;5076649;28;20465;-91
2021/05/28 10:24:43;;;;;;;5.23;4.67;;;17.00;71.80;;;;;;5076898;28;20823;-93
2021/05/28 10:27:10;;;;;;;4.50;4.30;;;16.80;70.30;;;;;;5075874;28;21048;-92
2021/05/28 10:29:39;;;;;;;5.03;3.73;;;17.00;71.10;;;;;;5076016;28;20443;-92
2021/05/28 10:32:12;;;;;;;3.73;3.53;;;17.30;72.50;;;;;;5076115;28;20812;-92
2021/05/28 10:35:09;;;;;;;3.50;3.27;;;17.60;71.30;;;;;;5074591;28;20443;-92
2021/05/28 10:37:36;;;;;;;6.67;3.87;;;17.90;71.60;;;;;;5075518;28;20482;-92
2021/05/28 10:40:28;;;;;;;3.77;3.50;;;18.00;68.00;;;;;;5075860;28;20467;-92
2021/05/28 10:43:01;;;;;;;3.90;3.70;;;18.10;70.10;;;;;;5075895;28;20457;-92
2021/05/28 10:45:55;;;;;;;6.27;5.10;;;18.50;71.30;;;;;;5076174;28;20460;-91
2021/05/28 10:48:54;;;;;;;5.73;5.07;;;18.60;67.10;;;;;;5062040;28;21008;-92
2021/05/28 10:51:42;;;;;;;4.13;3.83;;;18.80;64.80;;;;;;5075832;28;20464;-91
2021/05/28 10:54:29;;;;;;;4.30;4.10;;;19.10;64.10;;;;;;5075645;28;20469;-92
2021/05/28 10:56:56;;;;;;;5.70;4.10;;;19.10;62.90;;;;;;5075706;28;20975;-92
2021/05/28 10:59:25;;;;;;;4.20;3.90;;;19.30;67.00;;;;;;5075454;28;20461;-92
2021/05/28 11:01:56;;;;;;;4.67;3.57;;;19.40;67.20;;;;;;5075553;28;20453;-92
2021/05/28 11:04:24;;;;;;;3.57;3.27;;;19.80;67.70;;;;;;5076254;28;20487;-92
2021/05/28 11:07:16;;;;;;;4.13;3.90;;;20.00;63.00;;;;;;5075404;28;20502;-92
2021/05/28 11:09:43;;;;;;;4.17;3.97;;;20.10;61.80;;;;;;5075346;28;20493;-91
2021/05/28 11:12:10;;;;;;;3.60;3.43;;;20.60;59.80;;;;;;5075245;28;20466;-92
2021/05/28 11:14:40;;;;;;;4.03;3.60;;;20.60;60.80;;;;;;5075160;28;20454;-92
2021/05/28 11:17:15;;;;;;;3.70;3.60;;;20.90;60.70;;;;;;5074833;28;21009;-92
2021/05/28 11:19:47;;;;;;;5.97;3.90;;;21.00;61.10;;;;;;5074790;28;20446;-92
2021/05/28 11:22:24;;;;;;;5.77;5.23;;;20.90;61.20;;;;;;5074989;28;20434;-93
2021/05/28 11:25:03;;;;;;;4.17;3.97;;;20.60;59.00;;;;;;5075280;28;20443;-92
2021/05/28 11:27:40;;;;;;;6.17;3.50;;;19.80;61.20;;;;;;5074997;28;20478;-92
2021/05/28 11:30:26;;;;;;;3.60;3.40;;;20.30;63.40;;;;;;5075124;28;20470;-92
2021/05/28 11:32:52;;;;;;;4.03;3.60;;;20.70;61.40;;;;;;5075002;28;20829;-92
2021/05/28 11:35:21;;;;;;;4.10;3.90;;;20.50;57.90;;;;;;5074883;28;20844;-93
2021/05/28 11:37:53;;;;;;;4.50;3.80;;;20.80;60.60;;;;;;5074668;28;20993;-92
2021/05/28 11:40:22;;;;;;;3.87;3.67;;;21.00;60.10;;;;;;5074703;28;20516;-92
2021/05/28 11:42:49;;;;;;;4.53;4.33;;;20.80;58.50;;;;;;5074826;28;20458;-92
2021/05/28 11:45:17;;;;;;;3.97;3.60;;;20.50;58.10;;;;;;5074312;28;20462;-92
2021/05/28 11:47:44;;;;;;;4.70;3.90;;;20.70;60.60;;;;;;5074297;28;20485;-91
2021/05/28 11:50:13;;;;;;;4.27;3.93;;;21.10;59.80;;;;;;5074614;28;20469;-92
2021/05/28 11:52:40;;;;;;;3.67;3.37;;;21.30;59.40;;;;;;5074496;28;20543;-94
2021/05/28 11:55:09;;;;;;;3.90;3.63;;;21.50;57.90;;;;;;5074639;28;20458;-93
2021/05/28 11:57:35;;;;;;;6.80;4.23;;;21.50;56.40;;;;;;5074971;28;20535;-92
2021/05/28 12:00:07;;;;;;;5.50;4.87;;;20.80;57.30;;;;;;5074810;28;20466;-92
2021/05/28 12:02:46;;;;;;;5.50;4.80;;;20.30;58.60;;;;;;5074193;28;20447;-91
2021/05/28 12:05:20;;;;;;;4.73;4.40;;;19.80;59.00;;;;;;5075151;28;20451;-92
2021/05/28 12:07:47;;;;;;;3.73;3.53;;;19.10;59.50;;;;;;5074044;28;20482;-92
2021/05/28 12:10:15;;;;;;;3.97;3.57;;;19.00;60.90;;;;;;5073903;28;20502;-91
2021/05/28 12:12:57;;;;;;;9.87;4.37;;;19.00;63.00;;;;;;5074208;28;20462;-91
2021/05/28 12:15:25;;;;;;;7.53;3.63;;;19.10;61.60;;;;;;5074051;28;20472;-91
2021/05/28 12:17:53;;;;;;;3.90;3.60;;;19.60;63.80;;;;;;5073573;28;20503;-91
2021/05/28 12:20:23;;;;;;;3.63;3.40;;;19.90;60.50;;;;;;5073867;28;20875;-91
2021/05/28 12:23:09;;;;;;;7.53;4.40;;;20.30;63.40;;;;;;5073713;28;20459;-91
2021/05/28 12:39:37;;;;;;;14.33;5.37;;;21.00;57.60;;;;;;5011356;28;20468;-88
2021/05/28 12:42:03;;;;;;;4.03;3.73;;;20.50;59.50;;;;;;5012803;28;20458;-87
2021/05/28 12:44:32;;;;;;;3.80;3.60;;;20.70;62.20;;;;;;5014491;28;20464;-86
2021/05/28 12:47:00;;;;;;;3.93;3.67;;;20.80;58.40;;;;;;5013972;28;20469;-88
2021/05/28 12:49:29;;;;;;;4.00;3.80;;;21.00;60.00;;;;;;5014003;28;20457;-88
2021/05/28 12:51:55;;;;;;;3.93;3.33;;;20.90;56.10;;;;;;5014175;28;20473;-88
2021/05/28 12:54:24;;;;;;;8.60;3.80;;;20.90;56.60;;;;;;5014397;28;20465;-87
2021/05/28 12:56:52;;;;;;;3.10;3.00;;;20.80;55.20;;;;;;5014687;28;20865;-89
2021/05/28 12:59:19;;;;;;;3.20;3.10;;;21.10;60.10;;;;;;5005461;28;20463;-89
2021/05/28 13:01:47;;;;;;;5.73;3.70;;;21.50;58.40;;;;;;5004958;28;20516;-87
2021/05/28 13:04:14;;;;;;;3.57;3.20;;;21.40;56.70;;;;;;5005431;28;20453;-90
2021/05/28 13:06:41;;;;;;;4.17;2.83;;;21.40;56.40;;;;;;5014178;28;20962;-88
2021/05/28 13:09:19;;;;;;;3.20;3.07;;;20.80;55.50;;;;;;5013166;28;20543;-92
2021/05/28 13:11:59;;;;;;;4.10;3.67;;;20.90;59.00;;;;;;4994883;28;20466;-90
2021/05/28 13:14:29;;;;;;;3.10;2.90;;;21.30;58.40;;;;;;4995360;28;20462;-89
2021/05/28 13:16:56;;;;;;;15.50;5.20;;;21.70;59.60;;;;;;5000663;28;21014;-93
2021/05/28 13:19:23;;;;;;;3.40;2.80;;;21.80;53.80;;;;;;4998975;28;20490;-93
2021/05/28 13:21:54;;;;;;;3.57;3.27;;;22.00;54.30;;;;;;4997175;28;21025;-92
2021/05/28 13:24:35;;;;;;;6.30;2.77;;;22.00;55.40;;;;;;5004963;28;20458;-93
2021/05/28 13:27:17;;;;;;;1.83;1.57;;;21.90;56.70;;;;;;4996649;28;20565;-92
2021/05/28 13:29:52;;;;;;;2.37;2.00;;;21.90;55.10;;;;;;5002979;28;20459;-91
2021/05/28 13:32:20;;;;;;;4.23;2.63;;;21.70;55.30;;;;;;4996726;28;20473;-92
2021/05/28 13:34:59;;;;;;;2.30;2.13;;;21.60;53.90;;;;;;4999858;28;20946;-92
2021/05/28 13:37:26;;;;;;;3.03;2.80;;;21.70;55.30;;;;;;4994016;28;20490;-91
2021/05/28 13:39:52;;;;;;;2.20;2.10;;;21.90;52.80;;;;;;4993538;28;20467;-91
2021/05/28 13:42:25;;;;;;;3.63;1.87;;;22.20;52.70;;;;;;4994303;28;20973;-92
2021/05/28 13:44:52;;;;;;;4.77;2.83;;;22.40;55.70;;;;;;4994391;28;20483;-92
2021/05/28 13:47:19;;;;;;;2.73;2.63;;;21.90;53.60;;;;;;4994198;28;20484;-92
2021/05/28 13:49:45;;;;;;;5.83;2.07;;;22.00;52.70;;;;;;4994822;28;20465;-92
2021/05/28 13:52:12;;;;;;;3.10;2.03;;;21.90;50.00;;;;;;4994371;28;20470;-92
2021/05/28 13:54:39;;;;;;;2.13;2.03;;;21.80;50.10;;;;;;4994675;28;20468;-92
2021/05/28 13:57:07;;;;;;;1.80;1.70;;;21.70;51.20;;;;;;4994576;28;20494;-92
2021/05/28 13:59:34;;;;;;;2.33;2.13;;;22.00;52.00;;;;;;4995014;28;20463;-92
2021/05/28 14:02:01;;;;;;;2.07;1.97;;;22.20;52.30;;;;;;4994682;28;20475;-92
2021/05/28 14:04:28;;;;;;;2.00;1.90;;;22.20;52.20;;;;;;4995028;28;20798;-92
2021/05/28 14:06:54;;;;;;;3.43;2.03;;;22.30;53.20;;;;;;4994519;28;20489;-92
2021/05/28 14:09:22;;;;;;;2.70;2.50;;;22.50;51.70;;;;;;4997202;28;20473;-92
2021/05/28 14:11:48;;;;;;;3.20;2.00;;;22.20;48.80;;;;;;4999263;28;20469;-92
2021/05/28 14:14:14;;;;;;;2.60;2.47;;;22.40;50.20;;;;;;4997718;28;20987;-92
2021/05/28 14:16:42;;;;;;;2.20;2.10;;;22.50;50.70;;;;;;4998207;28;20482;-92
2021/05/28 14:19:08;;;;;;;2.60;2.50;;;22.30;49.80;;;;;;4997821;28;20460;-92
2021/05/28 14:21:34;;;;;;;3.67;2.80;;;22.30;48.30;;;;;;4997967;28;20884;-92
2021/05/28 14:24:01;;;;;;;2.87;2.70;;;22.00;50.50;;;;;;4997915;28;20466;-92
2021/05/28 14:26:27;;;;;;;2.90;2.80;;;22.20;51.10;;;;;;4999260;28;20477;-92
2021/05/28 14:28:53;;;;;;;2.47;2.37;;;21.90;48.30;;;;;;4998092;28;21056;-92
2021/05/28 14:31:20;;;;;;;2.50;2.30;;;21.60;47.90;;;;;;4999791;28;20473;-92
2021/05/28 14:33:53;;;;;;;2.30;2.10;;;21.50;49.90;;;;;;4998679;28;20470;-91
2021/05/28 14:36:23;;;;;;;2.97;2.83;;;21.60;48.60;;;;;;4999574;28;20458;-92
2021/05/28 14:38:50;;;;;;;2.50;2.40;;;21.40;47.90;;;;;;4998206;28;20515;-91
2021/05/28 14:41:17;;;;;;;13.60;2.27;;;21.60;49.00;;;;;;4998819;28;20839;-92
2021/05/28 14:43:45;;;;;;;2.10;2.00;;;21.50;49.60;;;;;;4999047;28;20466;-91
2021/05/28 14:46:11;;;;;;;6.87;3.17;;;21.50;49.30;;;;;;4999504;28;20951;-93
2021/05/28 14:48:38;;;;;;;2.40;2.30;;;21.10;48.60;;;;;;4998249;28;20482;-92
2021/05/28 14:51:06;;;;;;;3.77;2.60;;;21.00;48.00;;;;;;4999773;28;20463;-92
2021/05/28 14:53:32;;;;;;;8.40;2.13;;;21.00;49.30;;;;;;4999047;28;20464;-92
2021/05/28 14:55:59;;;;;;;3.53;1.97;;;21.00;50.10;;;;;;4997594;28;20462;-92
2021/05/28 14:58:25;;;;;;;2.03;1.70;;;21.10;50.00;;;;;;4997850;28;20492;-91
2021/05/28 15:00:52;;;;;;;3.03;2.37;;;21.20;48.50;;;;;;4997727;28;20462;-91
2021/05/28 15:03:18;;;;;;;6.90;2.47;;;21.10;48.20;;;;;;4996949;28;20472;-91
2021/05/28 15:05:45;;;;;;;2.30;2.20;;;21.10;48.30;;;;;;4997385;28;20984;-92
2021/05/28 15:08:13;;;;;;;2.40;2.30;;;21.20;48.40;;;;;;4997750;28;20999;-92
2021/05/28 15:10:39;;;;;;;1.80;1.70;;;21.50;48.00;;;;;;4998423;28;20950;-92
2021/05/28 15:13:05;;;;;;;2.27;1.97;;;21.50;47.70;;;;;;4998964;28;20897;-92
2021/05/28 15:15:32;;;;;;;2.20;2.10;;;21.40;49.30;;;;;;4997336;28;20463;-92
2021/05/28 15:17:58;;;;;;;4.47;2.37;;;21.30;50.40;;;;;;4996807;28;20486;-92
2021/05/28 15:20:24;;;;;;;1.90;1.80;;;21.40;49.30;;;;;;4997033;28;20467;-91
2021/05/28 15:22:50;;;;;;;1.83;1.83;;;21.30;48.10;;;;;;4995871;28;20466;-88
2021/05/28 15:25:18;;;;;;;4.20;2.10;;;21.30;48.80;;;;;;4995940;28;20970;-89
2021/05/28 15:27:45;;;;;;;2.00;1.50;;;21.40;47.70;;;;;;4995632;28;20506;-90
2021/05/28 15:30:12;;;;;;;2.50;1.97;;;21.50;49.20;;;;;;4996649;28;20464;-89
2021/05/28 15:32:39;;;;;;;1.67;1.57;;;21.30;47.00;;;;;;4995647;28;20470;-90